Fairlawn, Pennsylvania
Current Conditions -  °F | °C
As of 4:54 PM on Friday 28 Nov 2014 (Local Time) from KIPT Reporting Station
Clear Clear  
Wind Chill: 22°   Ceiling: Unl
Heat Index: 29°   Visibility: 10mi
Dew Point: 12°   Wind: 7mph
Humidity: 49%   Direction: 260°W
Pressure: 30.21"   Gusts: NA
Location:  41.3181°N, 77.075°W
Report Text: KIPT 282154Z 26006KT 10SM CLR M02/M11 A3021 RMK AO2 SLP236 T10171111
Loading
Personal Weather Stations






























Interactive Weather Map New forecast layout! Learn more

10-Day Weather Forecast

Advertisements
Track Severe Weather on mobile